Time;durP1;ratioP1;P1;durP2;ratioP2;P2;SDS_P1;SDS_P2;PMS_P1;PMS_P2;Temp;Humidity;BMP_temperature;BMP_pressure;BME280_temperature;BME280_humidity;BME280_pressure;Samples;Min_cycle;Max_cycle;Signal;HPM_P1;HPM_P2
2023/12/04 00:02:44;;;;;;;18.75;13.50;;;;;;;1.77;100.00;101204.97;4841877;29;20670;-67
2023/12/04 00:05:32;;;;;;;20.85;14.55;;;;;;;1.80;100.00;101203.72;4836255;29;20057;-67
2023/12/04 00:08:20;;;;;;;21.38;14.93;;;;;;;1.77;100.00;101193.38;4848575;29;20081;-65
2023/12/04 00:11:08;;;;;;;19.95;14.75;;;;;;;1.75;100.00;101182.84;4861244;29;20054;-68
2023/12/04 00:13:56;;;;;;;18.17;13.40;;;;;;;1.78;100.00;101189.66;4862869;29;20037;-67
2023/12/04 00:16:44;;;;;;;20.02;13.60;;;;;;;1.79;100.00;101175.22;4840662;29;20061;-67
2023/12/04 00:19:32;;;;;;;20.08;14.27;;;;;;;1.80;100.00;101179.53;4856300;29;20054;-63
2023/12/04 00:22:20;;;;;;;21.63;15.00;;;;;;;1.75;100.00;101180.16;4841924;29;20054;-60
2023/12/04 00:25:08;;;;;;;20.83;14.50;;;;;;;1.77;100.00;101177.28;4840549;29;20077;-68
2023/12/04 00:27:56;;;;;;;20.35;13.98;;;;;;;1.79;100.00;101180.59;4845081;29;20054;-67
2023/12/04 00:30:45;;;;;;;20.40;14.10;;;;;;;1.81;100.00;101175.84;4844270;29;20058;-67
2023/12/04 00:33:33;;;;;;;19.33;13.95;;;;;;;1.79;100.00;101177.91;4839625;29;20046;-67
2023/12/04 00:36:21;;;;;;;20.23;13.80;;;;;;;1.78;100.00;101178.91;4844109;29;20053;-68
2023/12/04 00:39:09;;;;;;;20.25;14.63;;;;;;;1.76;100.00;101173.75;4844042;29;20609;-67
2023/12/04 00:41:57;;;;;;;21.00;14.88;;;;;;;1.74;100.00;101169.63;4843152;29;20053;-68
2023/12/04 00:44:45;;;;;;;22.10;15.07;;;;;;;1.72;100.00;101163.63;4840077;29;20128;-68
2023/12/04 00:47:33;;;;;;;17.80;13.25;;;;;;;1.69;100.00;101160.31;4825174;29;20054;-68
2023/12/04 00:50:21;;;;;;;20.70;14.25;;;;;;;1.67;100.00;101166.91;4826013;29;20073;-68
2023/12/04 00:53:09;;;;;;;20.67;14.15;;;;;;;1.71;100.00;101165.47;4831885;29;20058;-68
2023/12/04 00:55:57;;;;;;;19.15;12.95;;;;;;;1.74;100.00;101156.19;4841764;29;20050;-68
2023/12/04 00:58:45;;;;;;;17.52;12.60;;;;;;;1.78;100.00;101157.44;4827975;29;20050;-67
2023/12/04 01:01:35;;;;;;;19.33;13.60;;;;;;;1.82;100.00;101147.94;4823235;29;20515;-68
2023/12/04 01:04:23;;;;;;;18.08;13.02;;;;;;;1.83;100.00;101144.25;4823846;29;20069;-67
2023/12/04 01:07:11;;;;;;;19.38;13.80;;;;;;;1.82;100.00;101142.56;4825555;29;20123;-68
2023/12/04 01:09:59;;;;;;;20.90;13.85;;;;;;;1.84;100.00;101137.81;4840848;29;20353;-68
2023/12/04 01:12:47;;;;;;;19.25;13.20;;;;;;;1.85;100.00;101134.94;4842169;29;20049;-67
2023/12/04 01:15:36;;;;;;;20.50;13.35;;;;;;;1.84;100.00;101129.75;4842729;29;20057;-68
2023/12/04 01:18:24;;;;;;;20.10;13.70;;;;;;;1.83;100.00;101128.13;4825631;29;20062;-68
2023/12/04 01:21:12;;;;;;;20.15;13.65;;;;;;;1.82;100.00;101129.13;4838214;29;20058;-67
2023/12/04 01:24:00;;;;;;;18.15;12.48;;;;;;;1.84;100.00;101129.75;4829563;29;20114;-67
2023/12/04 01:26:48;;;;;;;18.20;11.98;;;;;;;1.80;100.00;101123.13;4824074;29;20272;-68
2023/12/04 01:29:36;;;;;;;19.23;13.65;;;;;;;1.81;100.00;101116.75;4811596;29;20133;-67
2023/12/04 01:32:24;;;;;;;20.92;14.25;;;;;;;1.82;100.00;101115.69;4824917;29;20089;-67
2023/12/04 01:35:12;;;;;;;19.67;13.93;;;;;;;1.82;100.00;101107.66;4816319;29;20054;-69
2023/12/04 01:38:00;;;;;;;21.30;13.07;;;;;;;1.82;100.00;101121.06;4824376;29;20108;-68
2023/12/04 01:40:48;;;;;;;17.48;12.88;;;;;;;1.83;100.00;101106.63;4823587;29;20043;-67
2023/12/04 01:43:36;;;;;;;26.10;14.13;;;;;;;1.82;100.00;101102.28;4823149;29;20130;-68
2023/12/04 01:46:24;;;;;;;17.80;12.55;;;;;;;1.79;100.00;101100.81;4834125;29;20137;-69
2023/12/04 01:49:12;;;;;;;19.95;13.45;;;;;;;1.81;100.00;101098.75;4841600;29;20072;-67
2023/12/04 01:52:01;;;;;;;19.70;12.77;;;;;;;1.84;100.00;101102.91;4832357;29;20064;-67
2023/12/04 01:54:50;;;;;;;19.63;12.93;;;;;;;1.85;100.00;101099.16;4841731;29;20053;-67
2023/12/04 01:57:38;;;;;;;19.88;13.63;;;;;;;1.83;100.00;101106.63;4827770;29;20062;-67
2023/12/04 02:00:26;;;;;;;17.67;12.40;;;;;;;1.84;100.00;101100.22;4823465;29;20046;-67
2023/12/04 02:03:14;;;;;;;21.40;13.45;;;;;;;1.86;100.00;101090.91;4827063;29;20062;-68
2023/12/04 02:06:05;;;;;;;16.80;11.55;;;;;;;1.86;100.00;101090.09;4822333;29;20062;-67
2023/12/04 02:08:53;;;;;;;19.20;13.15;;;;;;;1.88;100.00;101083.47;4822338;29;20499;-68
2023/12/04 02:11:41;;;;;;;17.95;11.90;;;;;;;1.90;100.00;101080.56;4823936;29;20078;-69
2023/12/04 02:14:29;;;;;;;18.73;11.85;;;;;;;1.88;100.00;101079.97;4822854;29;20078;-68
2023/12/04 02:17:17;;;;;;;18.63;12.48;;;;;;;1.90;100.00;101076.06;4823554;29;20054;-68
2023/12/04 02:20:06;;;;;;;16.10;11.30;;;;;;;1.91;100.00;101071.50;4809860;29;20042;-68
2023/12/04 02:22:54;;;;;;;16.63;11.75;;;;;;;1.93;100.00;101066.75;4837039;29;20122;-67
2023/12/04 02:25:42;;;;;;;18.27;12.20;;;;;;;1.90;100.00;101059.94;4837414;29;20057;-68
2023/12/04 02:28:33;;;;;;;18.30;12.02;;;;;;;1.93;100.00;101050.63;4824619;29;20062;-68
2023/12/04 02:31:23;;;;;;;18.85;12.63;;;;;;;1.95;100.00;101035.13;4823460;29;20090;-68
2023/12/04 02:34:12;;;;;;;17.27;11.30;;;;;;;1.94;100.00;101049.59;4811085;29;20134;-68
2023/12/04 02:37:00;;;;;;;19.30;12.77;;;;;;;1.94;100.00;101044.22;4824317;29;20054;-68
2023/12/04 02:39:52;;;;;;;18.42;12.65;;;;;;;1.93;100.00;101039.88;4831415;29;20153;-68
2023/12/04 02:42:40;;;;;;;16.33;11.30;;;;;;;1.90;100.00;101021.47;4816248;29;20140;-68
2023/12/04 02:45:28;;;;;;;14.05;10.15;;;;;;;1.89;100.00;101020.63;4836780;29;20050;-68
2023/12/04 02:48:16;;;;;;;17.23;11.68;;;;;;;1.88;100.00;101018.19;4830150;29;20061;-68
2023/12/04 02:51:05;;;;;;;19.20;11.48;;;;;;;1.91;100.00;101023.13;4827292;29;20377;-68
2023/12/04 02:53:53;;;;;;;19.25;11.30;;;;;;;1.93;100.00;101021.06;4822064;29;20069;-67
2023/12/04 02:56:41;;;;;;;16.83;11.43;;;;;;;1.93;100.00;101010.31;4819954;29;20060;-67
2023/12/04 02:59:29;;;;;;;17.30;11.75;;;;;;;1.96;100.00;101014.47;4809704;29;20171;-67
2023/12/04 03:02:17;;;;;;;18.77;11.68;;;;;;;1.94;100.00;101017.34;4822099;29;20133;-67
2023/12/04 03:05:05;;;;;;;16.55;11.00;;;;;;;1.92;100.00;101003.28;4823168;29;20053;-68
2023/12/04 03:07:53;;;;;;;16.45;11.25;;;;;;;1.92;100.00;101003.28;4826072;29;20054;-67
2023/12/04 03:10:41;;;;;;;15.88;10.95;;;;;;;1.95;100.00;101002.03;4841559;29;20058;-68
2023/12/04 03:13:29;;;;;;;17.73;11.27;;;;;;;1.94;100.00;100995.84;4840501;29;20524;-68
2023/12/04 03:16:18;;;;;;;19.77;11.85;;;;;;;1.93;100.00;100991.50;4831332;29;20057;-67
2023/12/04 03:19:07;;;;;;;15.02;9.90;;;;;;;1.90;100.00;100989.22;4811966;29;20054;-68
2023/12/04 03:21:55;;;;;;;16.25;11.18;;;;;;;1.91;100.00;100986.34;4822581;29;20522;-68
2023/12/04 03:24:43;;;;;;;16.10;11.20;;;;;;;1.87;100.00;100978.91;4823223;29;20058;-69
2023/12/04 03:27:31;;;;;;;17.75;11.27;;;;;;;1.88;100.00;100975.19;4823091;29;20046;-67
2023/12/04 03:30:20;;;;;;;17.10;10.73;;;;;;;1.88;100.00;100973.31;4824209;29;20062;-66
2023/12/04 03:33:08;;;;;;;15.20;10.80;;;;;;;1.86;100.00;100967.31;4815531;29;20099;-67
2023/12/04 03:35:59;;;;;;;16.15;10.60;;;;;;;1.89;100.00;100966.09;4816252;29;20047;-69
2023/12/04 03:38:47;;;;;;;16.70;10.38;;;;;;;1.91;100.00;100964.03;4829539;29;20065;-68
2023/12/04 03:41:35;;;;;;;15.82;10.80;;;;;;;1.92;100.00;100954.91;4842334;29;20137;-68
2023/12/04 03:44:25;;;;;;;15.43;10.43;;;;;;;1.91;100.00;100951.41;4815910;29;20065;-67
2023/12/04 03:47:13;;;;;;;14.93;10.32;;;;;;;1.92;100.00;100949.53;4841192;29;20144;-67
2023/12/04 03:50:01;;;;;;;14.55;10.05;;;;;;;1.93;100.00;100945.84;4844176;29;20042;-67
2023/12/04 03:52:49;;;;;;;16.50;9.60;;;;;;;1.92;100.00;100944.16;4843370;29;20077;-67
2023/12/04 03:55:37;;;;;;;14.77;9.27;;;;;;;1.93;100.00;100940.47;4824923;29;20179;-67
2023/12/04 03:58:25;;;;;;;13.88;9.35;;;;;;;1.91;100.00;100931.78;4826061;29;20145;-67
2023/12/04 04:01:14;;;;;;;13.10;9.13;;;;;;;1.90;100.00;100930.13;4817267;29;20477;-67
2023/12/04 04:04:02;;;;;;;16.20;10.38;;;;;;;1.90;100.00;100922.06;4841898;29;20045;-67
2023/12/04 04:06:50;;;;;;;14.45;9.27;;;;;;;1.87;100.00;100922.47;4826212;29;20416;-67
2023/12/04 04:09:39;;;;;;;14.65;10.05;;;;;;;1.86;100.00;100915.47;4827303;29;20054;-67
2023/12/04 04:12:30;;;;;;;15.40;10.23;;;;;;;1.84;100.00;100902.22;4826485;29;20070;-67
2023/12/04 04:15:19;;;;;;;15.85;10.45;;;;;;;1.82;100.00;100911.53;4813763;29;20057;-68
2023/12/04 04:18:07;;;;;;;15.50;9.80;;;;;;;1.81;100.00;100907.19;4826664;29;20046;-67
2023/12/04 04:20:56;;;;;;;14.40;9.90;;;;;;;1.84;100.00;100904.09;4826340;29;20057;-69
2023/12/04 04:23:44;;;;;;;14.55;10.20;;;;;;;1.85;100.00;100900.34;4825823;29;20059;-67
2023/12/04 04:26:32;;;;;;;14.25;10.20;;;;;;;1.87;100.00;100906.34;4824305;29;20129;-67
2023/12/04 04:29:19;;;;;;;14.40;9.85;;;;;;;1.85;100.00;100897.69;4824927;29;20159;-68
2023/12/04 04:32:07;;;;;;;14.05;8.75;;;;;;;1.83;100.00;100897.91;4827797;29;20078;-67
2023/12/04 04:34:58;;;;;;;14.65;10.13;;;;;;;1.84;100.00;100882.59;4827114;29;20073;-64
2023/12/04 04:37:46;;;;;;;14.23;9.75;;;;;;;1.83;100.00;100881.78;4837099;29;20052;-64
2023/12/04 04:40:41;;;;;;;14.75;10.32;;;;;;;1.81;100.00;100878.47;4843476;29;20046;-66
2023/12/04 04:43:30;;;;;;;13.57;9.77;;;;;;;1.82;100.00;100877.44;4817416;29;20134;-67
2023/12/04 04:46:18;;;;;;;14.05;9.65;;;;;;;1.84;100.00;100878.03;4856769;29;20050;-66
2023/12/04 04:49:06;;;;;;;15.63;9.85;;;;;;;1.85;100.00;100879.72;4860220;29;20030;-64
2023/12/04 04:51:54;;;;;;;13.82;9.20;;;;;;;1.84;100.00;100867.31;4847564;29;20062;-64
2023/12/04 04:54:42;;;;;;;14.88;10.35;;;;;;;1.84;100.00;100866.47;4828683;29;20099;-68
2023/12/04 04:57:30;;;;;;;13.30;8.60;;;;;;;1.81;100.00;100866.91;4819610;29;20077;-67
2023/12/04 05:00:19;;;;;;;14.77;10.10;;;;;;;1.83;100.00;100870.22;4815177;29;20226;-65
2023/12/04 05:03:07;;;;;;;13.93;9.32;;;;;;;1.84;100.00;100866.47;4816195;29;20050;-68
2023/12/04 05:05:55;;;;;;;13.93;9.70;;;;;;;1.85;100.00;100873.50;4829527;29;20047;-67
2023/12/04 05:08:43;;;;;;;14.48;9.63;;;;;;;1.86;100.00;100869.78;4826417;29;20054;-68
2023/12/04 05:11:31;;;;;;;14.52;9.70;;;;;;;1.87;100.00;100871.44;4835450;29;20068;-67
2023/12/04 05:14:19;;;;;;;13.70;9.35;;;;;;;1.87;100.00;100866.06;4840952;29;20140;-69
2023/12/04 05:17:07;;;;;;;16.73;9.57;;;;;;;1.90;100.00;100871.00;4843085;29;20054;-69
2023/12/04 05:19:55;;;;;;;15.00;8.70;;;;;;;1.91;100.00;100859.25;4842262;29;20050;-69
2023/12/04 05:22:43;;;;;;;12.65;8.68;;;;;;;1.90;100.00;100861.09;4843163;29;20050;-67
2023/12/04 05:25:31;;;;;;;13.80;9.00;;;;;;;1.91;100.00;100857.38;4826899;29;20053;-67
2023/12/04 05:28:31;;;;;;;11.95;8.10;;;;;;;1.88;100.00;100856.97;4823525;29;20403;-68
2023/12/04 05:31:19;;;;;;;13.70;8.63;;;;;;;1.90;100.00;100858.41;4798776;29;20061;-67
2023/12/04 05:34:07;;;;;;;12.65;8.90;;;;;;;1.91;100.00;100851.19;4827202;29;20057;-68
2023/12/04 05:36:56;;;;;;;13.32;9.27;;;;;;;1.90;100.00;100841.44;4839909;29;20101;-68
2023/12/04 05:39:44;;;;;;;12.50;8.52;;;;;;;1.86;100.00;100842.94;4828329;29;20451;-65
2023/12/04 05:42:32;;;;;;;12.75;8.55;;;;;;;1.83;100.00;100837.97;4837362;29;20061;-68
2023/12/04 05:45:20;;;;;;;13.27;8.75;;;;;;;1.81;100.00;100834.69;4830458;29;20050;-67
2023/12/04 05:48:08;;;;;;;13.10;8.85;;;;;;;1.83;100.00;100830.75;4799435;29;20065;-68
2023/12/04 05:50:56;;;;;;;14.38;8.50;;;;;;;1.84;100.00;100828.88;4824167;29;20054;-67
2023/12/04 05:53:45;;;;;;;13.77;9.27;;;;;;;1.83;100.00;100824.56;4817918;29;20050;-67
2023/12/04 05:56:36;;;;;;;12.57;8.18;;;;;;;1.80;100.00;100823.06;4824263;29;20064;-68
2023/12/04 05:59:25;;;;;;;13.20;8.43;;;;;;;1.78;100.00;100827.00;4824890;29;20059;-66
2023/12/04 06:02:15;;;;;;;14.27;9.10;;;;;;;1.78;100.00;100830.56;4839796;29;20419;-67
2023/12/04 06:05:03;;;;;;;12.45;8.07;;;;;;;1.79;100.00;100826.00;4828705;29;20046;-69
2023/12/04 06:07:51;;;;;;;12.13;8.13;;;;;;;1.82;100.00;100822.88;4824535;29;20058;-68
2023/12/04 06:10:39;;;;;;;14.15;8.82;;;;;;;1.86;100.00;100834.88;4840987;29;20061;-69
2023/12/04 06:13:28;;;;;;;13.82;8.43;;;;;;;1.88;100.00;100824.75;4815785;29;20081;-67
2023/12/04 06:16:16;;;;;;;11.77;8.27;;;;;;;1.90;100.00;100822.66;4841522;29;20050;-67
2023/12/04 06:19:04;;;;;;;14.65;8.90;;;;;;;1.87;100.00;100815.81;4841675;29;20062;-67
2023/12/04 06:21:52;;;;;;;11.98;7.53;;;;;;;1.86;100.00;100810.69;4837031;29;20484;-67
2023/12/04 06:24:40;;;;;;;12.10;8.10;;;;;;;1.83;100.00;100800.38;4833535;29;20054;-67
2023/12/04 06:27:29;;;;;;;14.48;8.73;;;;;;;1.82;100.00;100801.38;4828678;29;20435;-67
2023/12/04 06:30:17;;;;;;;13.80;8.18;;;;;;;1.82;100.00;100794.16;4842423;29;20483;-68
2023/12/04 06:33:06;;;;;;;11.70;7.70;;;;;;;1.83;100.00;100789.63;4812905;29;20191;-69
2023/12/04 06:35:55;;;;;;;12.65;7.70;;;;;;;1.78;100.00;100792.09;4823584;29;20050;-67
2023/12/04 06:38:44;;;;;;;13.27;8.15;;;;;;;1.77;100.00;100785.09;4823889;29;20061;-65
2023/12/04 06:41:33;;;;;;;12.80;7.97;;;;;;;1.79;100.00;100761.53;4822879;29;20058;-68
2023/12/04 06:44:21;;;;;;;11.95;7.78;;;;;;;1.79;100.00;100756.16;4826778;29;20640;-68
2023/12/04 06:47:10;;;;;;;11.65;7.65;;;;;;;1.81;100.00;100748.72;4822621;29;20053;-68
2023/12/04 06:49:58;;;;;;;12.82;8.05;;;;;;;1.77;100.00;100736.72;4798391;29;20050;-68
2023/12/04 06:52:46;;;;;;;13.40;7.65;;;;;;;1.76;100.00;100741.28;4823359;29;20512;-67
2023/12/04 06:55:34;;;;;;;13.23;7.60;;;;;;;1.77;100.00;100742.09;4830607;29;20178;-68
2023/12/04 06:58:23;;;;;;;11.30;7.07;;;;;;;1.81;100.00;100738.78;4841755;29;20142;-68
2023/12/04 07:01:11;;;;;;;11.98;7.15;;;;;;;1.82;100.00;100734.22;4824293;29;20050;-67
2023/12/04 07:03:59;;;;;;;11.95;6.97;;;;;;;1.79;100.00;100734.66;4830708;29;20503;-67
2023/12/04 07:06:50;;;;;;;11.32;7.25;;;;;;;1.74;100.00;100732.63;4841463;29;20084;-66
2023/12/04 07:09:39;;;;;;;15.10;7.47;;;;;;;1.73;100.00;100724.75;4829193;29;20127;-68
2023/12/04 07:12:27;;;;;;;11.25;7.97;;;;;;;1.72;100.00;100712.38;4828333;29;20482;-67
2023/12/04 07:15:15;;;;;;;10.75;6.78;;;;;;;1.67;100.00;100705.78;4831624;29;20057;-67
2023/12/04 07:18:03;;;;;;;11.48;7.53;;;;;;;1.62;100.00;100702.91;4495653;29;9999716;-69
2023/12/04 07:20:52;;;;;;;10.27;7.35;;;;;;;1.63;100.00;100704.53;4845529;29;20794;-68
2023/12/04 07:23:41;;;;;;;12.88;7.63;;;;;;;1.66;100.00;100720.25;4843547;29;20054;-69
2023/12/04 07:26:30;;;;;;;11.95;7.38;;;;;;;1.73;100.00;100735.50;4831541;29;20604;-68
2023/12/04 07:29:18;;;;;;;16.90;7.53;;;;;;;1.77;100.00;100742.09;4820750;29;20050;-68
2023/12/04 07:32:07;;;;;;;13.70;7.70;;;;;;;1.76;100.00;100743.16;4825815;29;20508;-67
2023/12/04 07:34:55;;;;;;;15.68;7.63;;;;;;;1.80;100.00;100741.69;4827783;29;20133;-67
2023/12/04 07:37:44;;;;;;;14.13;7.60;;;;;;;1.84;100.00;100734.84;4828456;29;20050;-68
2023/12/04 07:40:32;;;;;;;11.60;7.88;;;;;;;1.85;100.00;100728.44;4829408;29;20132;-68
2023/12/04 07:43:20;;;;;;;11.27;7.43;;;;;;;1.83;100.00;100734.03;4858469;29;20050;-68
2023/12/04 07:46:10;;;;;;;15.88;7.85;;;;;;;1.82;100.00;100728.88;4855261;29;20064;-66
2023/12/04 07:48:58;;;;;;;11.55;7.63;;;;;;;1.78;100.00;100725.78;4835183;29;20398;-68
2023/12/04 07:51:47;;;;;;;11.45;7.70;;;;;;;1.76;100.00;100733.22;4827676;29;20069;-68
2023/12/04 07:54:35;;;;;;;11.23;6.80;;;;;;;1.78;100.00;100727.63;4826795;29;20080;-69
2023/12/04 07:57:23;;;;;;;11.45;6.82;;;;;;;1.82;100.00;100726.19;4812184;29;20065;-68
2023/12/04 08:00:12;;;;;;;11.95;7.03;;;;;;;1.82;100.00;100735.06;4813820;29;20051;-69
2023/12/04 08:03:00;;;;;;;12.15;6.95;;;;;;;1.85;100.00;100733.81;4826759;29;20227;-68
2023/12/04 08:05:48;;;;;;;11.93;6.95;;;;;;;1.83;100.00;100730.53;4826825;29;20050;-67
2023/12/04 08:08:36;;;;;;;11.40;7.32;;;;;;;1.80;100.00;100725.56;4840021;29;20531;-71
2023/12/04 08:11:24;;;;;;;11.32;7.20;;;;;;;1.76;100.00;100725.16;4843549;29;20064;-67
2023/12/04 08:14:12;;;;;;;9.98;6.85;;;;;;;1.80;100.00;100723.69;4844341;29;20058;-68
2023/12/04 08:17:00;;;;;;;11.45;7.30;;;;;;;1.83;100.00;100712.53;4830165;29;20058;-67
2023/12/04 08:19:48;;;;;;;10.60;6.45;;;;;;;1.86;100.00;100708.59;4800058;29;20050;-68
2023/12/04 08:22:41;;;;;;;11.18;7.28;;;;;;;1.87;100.00;100704.88;4822680;29;20050;-69
2023/12/04 08:25:29;;;;;;;10.00;6.40;;;;;;;1.87;100.00;100704.88;4811294;29;20504;-68
2023/12/04 08:28:18;;;;;;;12.18;6.82;;;;;;;1.90;100.00;100696.38;4835964;29;20117;-68
2023/12/04 08:31:08;;;;;;;12.95;7.43;;;;;;;1.91;100.00;100706.91;4831038;29;20784;-68
2023/12/04 08:33:56;;;;;;;10.65;6.35;;;;;;;1.94;100.00;100696.78;4822709;29;20058;-67
2023/12/04 08:36:44;;;;;;;11.57;7.25;;;;;;;1.97;100.00;100693.66;4824186;29;20050;-66
2023/12/04 08:39:34;;;;;;;13.77;6.97;;;;;;;1.97;100.00;100689.09;4825452;29;20133;-66
2023/12/04 08:42:22;;;;;;;13.75;7.63;;;;;;;1.97;100.00;100689.09;4828102;29;20050;-65
2023/12/04 08:45:11;;;;;;;10.80;6.93;;;;;;;1.99;100.00;100684.34;4826408;29;20050;-67
2023/12/04 08:47:59;;;;;;;11.32;7.55;;;;;;;1.97;100.00;100681.03;4838072;29;20419;-66
2023/12/04 08:50:48;;;;;;;12.73;8.05;;;;;;;1.94;100.00;100681.47;4843239;29;20062;-65
2023/12/04 08:53:36;;;;;;;12.18;7.93;;;;;;;1.90;100.00;100673.03;4830679;29;20114;-67
2023/12/04 08:56:24;;;;;;;12.13;7.70;;;;;;;1.91;100.00;100665.78;4832285;29;20057;-67
2023/12/04 08:59:18;;;;;;;15.35;8.57;;;;;;;1.92;100.00;100662.91;4815283;29;20051;-70
2023/12/04 09:02:06;;;;;;;12.52;7.80;;;;;;;1.95;100.00;100664.34;4835068;29;20082;-68
2023/12/04 09:04:56;;;;;;;12.30;7.60;;;;;;;1.96;100.00;100654.41;4816355;29;20055;-67
2023/12/04 09:07:44;;;;;;;11.38;7.20;;;;;;;1.96;100.00;100655.22;4817677;29;20057;-68
2023/12/04 09:10:35;;;;;;;11.45;7.65;;;;;;;1.99;100.00;100645.91;4834495;29;20050;-65
2023/12/04 09:13:43;;;;;;;11.32;7.57;;;;;;;1.99;100.00;100643.22;4857640;29;20056;-64
2023/12/04 09:16:31;;;;;;;14.85;8.32;;;;;;;2.01;100.00;100636.59;4858552;29;20058;-61
2023/12/04 09:19:19;;;;;;;12.48;8.25;;;;;;;2.02;100.00;100642.78;4851122;29;20053;-67
2023/12/04 09:22:08;;;;;;;11.82;7.55;;;;;;;1.98;100.00;100642.41;4831124;29;20498;-66
2023/12/04 09:25:08;;;;;;;13.93;8.50;;;;;;;1.91;100.00;100638.94;4844882;29;20523;-67
2023/12/04 09:27:56;;;;;;;13.60;8.18;;;;;;;1.93;100.00;100639.53;4843421;29;20050;-67
2023/12/04 09:30:44;;;;;;;13.25;8.27;;;;;;;2.00;100.00;100645.69;4842041;29;20046;-66
2023/12/04 09:33:32;;;;;;;17.45;8.55;;;;;;;2.02;100.00;100637.41;4823994;29;20046;-67
2023/12/04 09:36:20;;;;;;;12.18;8.32;;;;;;;2.02;100.00;100635.56;4825246;29;20456;-68
2023/12/04 09:39:10;;;;;;;12.70;8.23;;;;;;;2.03;100.00;100637.19;4825153;29;20492;-69
2023/12/04 09:41:59;;;;;;;12.82;8.48;;;;;;;2.06;100.00;100638.63;4815369;29;20479;-67
2023/12/04 09:44:49;;;;;;;12.30;8.25;;;;;;;2.08;100.00;100636.56;4818351;29;20061;-67
2023/12/04 09:47:37;;;;;;;11.80;8.15;;;;;;;2.05;100.00;100637.81;4825513;29;20082;-68
2023/12/04 09:50:26;;;;;;;14.23;9.00;;;;;;;2.06;100.00;100634.06;4825153;29;20065;-68
2023/12/04 09:53:14;;;;;;;12.70;8.65;;;;;;;2.06;100.00;100628.69;4825813;29;20423;-66
2023/12/04 09:56:04;;;;;;;13.57;8.80;;;;;;;2.05;100.00;100626.25;4823663;29;20050;-66
2023/12/04 09:59:02;;;;;;;13.18;8.57;;;;;;;2.07;100.00;100630.38;4823583;29;20072;-68
2023/12/04 10:01:51;;;;;;;15.10;8.75;;;;;;;2.13;100.00;100629.47;4824312;29;20050;-66
2023/12/04 10:04:39;;;;;;;14.40;8.95;;;;;;;2.10;100.00;100627.22;4825797;29;20126;-67
2023/12/04 10:07:27;;;;;;;17.83;9.60;;;;;;;2.13;100.00;100616.03;4811115;29;20054;-69
2023/12/04 10:10:15;;;;;;;13.88;9.18;;;;;;;2.13;100.00;100616.03;4825225;29;20057;-67
2023/12/04 10:13:03;;;;;;;16.95;10.57;;;;;;;2.20;100.00;100612.50;4810186;29;20468;-69
2023/12/04 10:15:52;;;;;;;16.05;10.20;;;;;;;2.22;100.00;100610.41;4824556;29;20169;-67
2023/12/04 10:18:40;;;;;;;16.52;9.40;;;;;;;2.23;100.00;100610.19;4837432;29;20049;-66
2023/12/04 10:21:33;;;;;;;13.13;9.10;;;;;;;2.23;100.00;100602.13;4843080;29;20430;-67
2023/12/04 10:24:35;;;;;;;15.63;8.98;;;;;;;2.20;100.00;100601.75;4841803;29;20046;-66
2023/12/04 10:27:27;;;;;;;14.32;9.15;;;;;;;2.16;100.00;100595.16;4828726;29;20050;-67
2023/12/04 10:30:28;;;;;;;12.82;8.38;;;;;;;2.20;100.00;100588.31;4840399;29;20508;-67
2023/12/04 10:33:16;;;;;;;13.82;9.80;;;;;;;2.23;100.00;100588.69;4831195;29;20054;-65
2023/12/04 10:36:12;;;;;;;14.80;9.50;;;;;;;2.24;100.00;100581.47;4841887;29;20042;-66
2023/12/04 10:39:04;;;;;;;14.60;9.75;;;;;;;2.19;100.00;100581.25;4841871;29;20483;-66
2023/12/04 10:42:01;;;;;;;15.02;10.73;;;;;;;2.16;100.00;100574.47;4829807;29;20046;-67
2023/12/04 10:44:50;;;;;;;16.40;9.70;;;;;;;2.17;100.00;100564.56;4802283;29;20419;-65
2023/12/04 10:47:39;;;;;;;15.45;10.63;;;;;;;2.16;100.00;100552.16;4811592;29;20054;-70
2023/12/04 10:50:28;;;;;;;15.10;10.55;;;;;;;2.15;100.00;100545.13;4823181;29;20054;-66
2023/12/04 10:53:17;;;;;;;17.25;10.02;;;;;;;2.17;100.00;100545.75;4827763;29;20057;-64
2023/12/04 10:56:06;;;;;;;15.70;9.45;;;;;;;2.19;100.00;100540.94;4838351;29;20503;-65
2023/12/04 10:58:55;;;;;;;13.85;9.65;;;;;;;2.22;100.00;100545.91;4842090;29;20077;-67
2023/12/04 11:01:45;;;;;;;13.57;9.40;;;;;;;2.23;100.00;100526.84;4835284;29;20053;-66
2023/12/04 11:04:35;;;;;;;18.95;9.35;;;;;;;2.28;100.00;100523.50;4835315;29;20046;-66
2023/12/04 11:07:27;;;;;;;13.77;9.23;;;;;;;2.29;100.00;100522.47;4844828;29;20057;-66
2023/12/04 11:10:16;;;;;;;13.25;9.43;;;;;;;2.25;100.00;100513.22;4822010;29;20054;-66
2023/12/04 11:13:19;;;;;;;27.02;10.75;;;;;;;2.25;100.00;100507.84;4822382;29;20144;-66
2023/12/04 11:16:28;;;;;;;14.63;10.13;;;;;;;2.27;100.00;100500.38;4830877;29;20158;-69
2023/12/04 11:19:29;;;;;;;16.83;10.32;;;;;;;2.26;100.00;100496.03;4830888;29;20497;-66
2023/12/04 11:22:20;;;;;;;14.77;9.57;;;;;;;2.22;100.00;100481.41;4820595;29;20073;-64
2023/12/04 11:25:09;;;;;;;15.55;9.65;;;;;;;2.26;100.00;100482.59;4840365;29;20234;-66
2023/12/04 11:27:57;;;;;;;17.02;9.80;;;;;;;2.28;100.00;100480.50;4838956;29;20141;-67
2023/12/04 11:30:45;;;;;;;13.20;9.10;;;;;;;2.30;100.00;100475.72;4839398;29;20183;-68
2023/12/04 11:33:38;;;;;;;15.80;10.07;;;;;;;2.26;100.00;100471.84;4844748;29;20046;-66
2023/12/04 11:36:28;;;;;;;16.23;10.98;;;;;;;2.38;100.00;100478.13;4827483;29;20061;-65
2023/12/04 11:39:18;;;;;;;15.98;10.35;;;;;;;2.39;100.00;100470.91;4819048;29;20526;-67
2023/12/04 11:42:12;;;;;;;16.42;10.57;;;;;;;2.45;100.00;100475.38;4815544;29;20046;-67
2023/12/04 11:45:01;;;;;;;14.98;9.93;;;;;;;2.47;100.00;100478.66;4832456;29;20053;-65
2023/12/04 11:47:56;;;;;;;12.80;9.02;;;;;;;2.45;100.00;100468.13;4845817;29;20050;-69
2023/12/04 11:50:45;;;;;;;13.90;9.88;;;;;;;2.44;100.00;100465.66;4828220;29;20064;-65
2023/12/04 11:53:37;;;;;;;14.45;9.82;;;;;;;2.46;100.00;100464.41;4842611;29;20136;-66
2023/12/04 11:56:25;;;;;;;13.57;8.98;;;;;;;2.45;100.00;100457.34;4840633;29;20459;-66
2023/12/04 11:59:13;;;;;;;14.57;10.15;;;;;;;2.42;100.00;100457.81;4827144;29;20060;-67
2023/12/04 12:02:01;;;;;;;13.45;9.52;;;;;;;2.45;100.00;100459.22;4825877;29;20492;-68
2023/12/04 12:04:50;;;;;;;17.95;9.57;;;;;;;2.47;100.00;100441.00;4827707;29;20058;-66
2023/12/04 12:07:39;;;;;;;14.32;9.20;;;;;;;2.50;100.00;100440.56;4827597;29;20062;-67
2023/12/04 12:10:28;;;;;;;14.25;9.48;;;;;;;2.51;100.00;100426.09;4836447;29;20057;-68
2023/12/04 12:13:16;;;;;;;16.23;9.77;;;;;;;2.50;100.00;100430.66;4825575;29;20516;-68
2023/12/04 12:16:05;;;;;;;15.20;10.75;;;;;;;2.39;100.00;100425.19;4813613;29;20096;-69
2023/12/04 12:18:53;;;;;;;16.42;10.40;;;;;;;2.30;100.00;100414.72;4826181;29;20199;-68
2023/12/04 12:21:41;;;;;;;18.25;10.45;;;;;;;2.30;100.00;100411.22;4813836;29;20055;-69
2023/12/04 12:24:29;;;;;;;17.60;9.75;;;;;;;2.28;100.00;100410.59;4150005;29;10000583;-69
2023/12/04 12:27:17;;;;;;;13.15;9.02;;;;;;;2.29;100.00;100390.75;4813867;29;20631;-67
2023/12/04 12:30:07;;;;;;;13.55;9.10;;;;;;;2.34;100.00;100382.84;4840980;29;20068;-67
2023/12/04 12:32:55;;;;;;;14.50;9.82;;;;;;;2.35;100.00;100373.72;4840615;29;20110;-70
2023/12/04 12:35:43;;;;;;;14.88;9.35;;;;;;;2.37;100.00;100363.56;4824726;29;20054;-67
2023/12/04 12:38:49;;;;;;;15.52;9.00;;;;;;;2.37;100.00;100365.44;4836277;29;20292;-68
2023/12/04 12:41:37;;;;;;;14.23;9.35;;;;;;;2.38;100.00;100361.69;4818193;29;20042;-69
2023/12/04 12:44:27;;;;;;;13.88;8.65;;;;;;;2.37;100.00;100354.69;4838722;29;20095;-69
2023/12/04 12:47:15;;;;;;;12.35;8.48;;;;;;;2.35;100.00;100347.66;4817150;29;20053;-69
2023/12/04 12:50:05;;;;;;;13.57;9.23;;;;;;;2.30;100.00;100342.13;4811536;29;20062;-68
2023/12/04 12:52:55;;;;;;;15.15;9.50;;;;;;;2.24;100.00;100336.88;4821824;29;20381;-66
2023/12/04 12:55:43;;;;;;;17.75;9.82;;;;;;;2.16;100.00;100329.09;4822532;29;20173;-70